KOFF

Offutt AFB Airport

Omaha, Nebraska, USA
TAF KOFF 160200Z 1602/1708 23006KT 9999 BKN130 QNH3012INS BECMG 1608/1609 32006KT 9999 SKC QNH3019INS TX07/1621Z TNM03/1612Z
Issued Valid From Valid To
Dec-16 @ 02:00 UTC
(5 hours ago)
Dec-16 @ 02:00 UTC
(5 hours ago)
Dec-17 @ 08:00 UTC
(-1 days ago)
Dec-16 @ 02:00 to Dec-16 @ 08:00
TAF KOFF 160200Z 1602/1708 23006KT 9999 BKN130 QNH3012INS
Wind Visibility Clouds Readings
230° at 6 knots Greater than 6 miles
  • Broken at 13,000' AGL
Altimeter 30.12" Hg
Pressure 1020 hPa
Becoming Dec-16 @ 08:00 to Dec-17 @ 08:00
BECMG 1608/1609 32006KT 9999 SKC QNH3019INS TX07/1621Z TNM03/1612Z
Wind Visibility Clouds Readings
320° at 6 knots Greater than 6 miles
  • Clear skies
Altimeter 30.18" Hg
Pressure 1022 hPa
TAF KOFF 160200Z 1602/1708 23006KT 9999 BKN130 QNH3012INS BECMG 1608/1609 32006KT 9999 SKC QNH3019INS TX07/1621Z TNM03/1612Z
Issued Dec-16 @ 02:00 UTC
(5 hours ago)
Valid From Dec-16 @ 02:00 UTC
(5 hours ago)
Valid To Dec-17 @ 08:00 UTC
(-1 days ago)
Dec-16 @ 02:00 - Dec-16 @ 08:00
Wind Visibility
230° at 6 knots Greater than 6 miles
Clouds
  • Broken at 13,000' AGL
Becoming Dec-16 @ 08:00 - Dec-17 @ 08:00
Wind Visibility
320° at 6 knots Greater than 6 miles
Clouds
  • Clear skies